Time;durP1;ratioP1;P1;durP2;ratioP2;P2;SDS_P1;SDS_P2;PMS_P1;PMS_P2;Temp;Humidity;BMP_temperature;BMP_pressure;BME280_temperature;BME280_humidity;BME280_pressure;Samples;Min_cycle;Max_cycle;Signal;HPM_P1;HPM_P2
2022/12/28 00:00:20;;;;;;;12.93;8.48;;;;;;;;;;4943248;28;20142;-66
2022/12/28 00:02:46;;;;;;;22.75;11.82;;;;;;;;;;4943314;28;20083;-64
2022/12/28 00:05:11;;;;;;;21.30;11.57;;;;;;;;;;4944189;28;20043;-62
2022/12/28 00:07:37;;;;;;;22.67;10.90;;;;;;;;;;4943064;28;20079;-65
2022/12/28 00:10:02;;;;;;;19.67;10.80;;;;;;;;;;4943443;28;20434;-64
2022/12/28 00:12:28;;;;;;;29.75;12.90;;;;;;;;;;4942545;28;20407;-64
2022/12/28 00:14:54;;;;;;;25.65;11.70;;;;;;;;;;4943759;28;20051;-63
2022/12/28 00:17:19;;;;;;;20.48;10.88;;;;;;;;;;4942492;28;20051;-63
2022/12/28 00:19:45;;;;;;;22.73;10.57;;;;;;;;;;4941466;28;20047;-61
2022/12/28 00:22:10;;;;;;;13.35;7.85;;;;;;;;;;4940640;28;20062;-62
2022/12/28 00:24:35;;;;;;;13.57;8.63;;;;;;;;;;4942238;28;21097;-63
2022/12/28 00:27:01;;;;;;;20.92;11.68;;;;;;;;;;4942190;28;20463;-64
2022/12/28 00:29:26;;;;;;;16.55;10.38;;;;;;;;;;4941162;28;20385;-63
2022/12/28 00:31:53;;;;;;;27.77;13.70;;;;;;;;;;4939839;28;20043;-63
2022/12/28 00:34:22;;;;;;;20.17;12.68;;;;;;;;;;4955902;28;20095;-62
2022/12/28 00:36:51;;;;;;;24.33;13.52;;;;;;;;;;4940599;28;20432;-59
2022/12/28 00:39:18;;;;;;;17.38;11.05;;;;;;;;;;4941591;28;20098;-63
2022/12/28 00:41:44;;;;;;;18.15;10.63;;;;;;;;;;4941447;28;20054;-64
2022/12/28 00:44:09;;;;;;;15.23;9.70;;;;;;;;;;4941373;28;20051;-61
2022/12/28 00:46:35;;;;;;;13.93;8.82;;;;;;;;;;4941996;28;20035;-64
2022/12/28 00:49:00;;;;;;;14.07;10.00;;;;;;;;;;4941288;28;20051;-62
2022/12/28 00:51:26;;;;;;;13.80;9.35;;;;;;;;;;4941921;28;20093;-64
2022/12/28 00:53:51;;;;;;;19.10;9.32;;;;;;;;;;4955797;28;20138;-63
2022/12/28 00:56:19;;;;;;;13.00;8.88;;;;;;;;;;4955835;28;20049;-62
2022/12/28 00:58:46;;;;;;;12.70;7.93;;;;;;;;;;4941540;28;20134;-65
2022/12/28 01:01:16;;;;;;;13.23;7.93;;;;;;;;;;4941717;28;20047;-65
2022/12/28 01:03:42;;;;;;;12.10;7.03;;;;;;;;;;4940767;28;20094;-63
2022/12/28 01:06:10;;;;;;;10.20;7.32;;;;;;;;;;4939915;28;20055;-63
2022/12/28 01:08:36;;;;;;;10.98;7.45;;;;;;;;;;4955827;28;20476;-65
2022/12/28 01:11:07;;;;;;;11.10;6.88;;;;;;;;;;4941390;28;20157;-61
2022/12/28 01:13:33;;;;;;;12.38;7.20;;;;;;;;;;4941273;28;20050;-64
2022/12/28 01:15:58;;;;;;;12.20;8.07;;;;;;;;;;4940948;28;20047;-63
2022/12/28 01:18:24;;;;;;;11.32;7.80;;;;;;;;;;4939846;28;20130;-64
2022/12/28 01:20:50;;;;;;;12.68;7.88;;;;;;;;;;4941754;28;20039;-64
2022/12/28 01:23:15;;;;;;;12.63;8.38;;;;;;;;;;4941643;28;20385;-64
2022/12/28 01:25:40;;;;;;;15.32;7.85;;;;;;;;;;4955668;28;20055;-64
2022/12/28 01:28:06;;;;;;;11.30;7.97;;;;;;;;;;4939358;28;20058;-61
2022/12/28 01:30:31;;;;;;;17.25;7.00;;;;;;;;;;4937528;28;20114;-64
2022/12/28 01:33:00;;;;;;;12.48;7.93;;;;;;;;;;4953906;28;20065;-62
2022/12/28 01:35:25;;;;;;;12.48;7.63;;;;;;;;;;4937009;28;20054;-64
2022/12/28 01:37:55;;;;;;;12.25;7.50;;;;;;;;;;4938535;28;20137;-65
2022/12/28 01:40:21;;;;;;;8.95;6.78;;;;;;;;;;4933838;28;20047;-61
2022/12/28 01:42:46;;;;;;;10.75;7.75;;;;;;;;;;4936335;28;20130;-63
2022/12/28 01:45:20;;;;;;;11.68;7.57;;;;;;;;;;4936786;29;20421;-60
2022/12/28 01:47:49;;;;;;;8.18;6.45;;;;;;;;;;4919260;28;20102;-63
2022/12/28 01:50:20;;;;;;;10.93;7.60;;;;;;;;;;4935783;29;20055;-60
2022/12/28 01:53:01;;;;;;;12.35;6.38;;;;;;;;;;4920138;29;20134;-63
2022/12/28 01:55:30;;;;;;;14.25;6.35;;;;;;;;;;4922108;28;20052;-64
2022/12/28 01:58:04;;;;;;;16.35;6.40;;;;;;;;;;4935068;29;20851;-64
2022/12/28 02:00:30;;;;;;;7.25;5.82;;;;;;;;;;4935632;28;20523;-64
2022/12/28 02:02:59;;;;;;;10.07;6.95;;;;;;;;;;4921885;28;20106;-62
2022/12/28 02:05:32;;;;;;;7.10;5.63;;;;;;;;;;4921678;29;20050;-61
2022/12/28 02:08:05;;;;;;;7.80;5.53;;;;;;;;;;4935460;28;20040;-63
2022/12/28 02:10:32;;;;;;;6.43;5.07;;;;;;;;;;4921798;29;20051;-64
2022/12/28 02:12:59;;;;;;;6.53;5.35;;;;;;;;;;4920850;28;20058;-63
2022/12/28 02:15:26;;;;;;;9.50;6.65;;;;;;;;;;4921710;29;20039;-63
2022/12/28 02:17:51;;;;;;;9.57;5.90;;;;;;;;;;4920898;28;20052;-62
2022/12/28 02:20:17;;;;;;;6.18;5.50;;;;;;;;;;4936487;29;20055;-64
2022/12/28 02:23:07;;;;;;;8.05;5.13;;;;;;;;;;4921233;29;20048;-63
2022/12/28 02:25:53;;;;;;;6.72;5.53;;;;;;;;;;4922198;28;20051;-62
2022/12/28 02:28:56;;;;;;;8.75;6.47;;;;;;;;;;4933835;28;20055;-63
2022/12/28 02:31:39;;;;;;;19.30;5.63;;;;;;;;;;4933884;28;20452;-64
2022/12/28 02:34:15;;;;;;;11.05;6.85;;;;;;;;;;4939516;28;20047;-65
2022/12/28 02:36:48;;;;;;;17.38;5.43;;;;;;;;;;4940364;28;20051;-64
2022/12/28 02:39:20;;;;;;;27.25;5.63;;;;;;;;;;4938813;28;20503;-62
2022/12/28 02:41:47;;;;;;;12.70;6.25;;;;;;;;;;4940130;28;20047;-63
2022/12/28 02:50:04;;;;;;;6.13;5.05;;;;;;;;;;4938770;28;20051;-64
2022/12/28 02:52:40;;;;;;;6.65;4.75;;;;;;;;;;4943776;28;20047;-64
2022/12/28 02:58:39;;;;;;;4.63;3.70;;;;;;;;;;4928081;28;20523;-63
2022/12/28 03:01:18;;;;;;;5.85;4.25;;;;;;;;;;4940162;28;20138;-62
2022/12/28 03:04:06;;;;;;;6.93;4.75;;;;;;;;;;4925530;28;20484;-63
2022/12/28 03:09:40;;;;;;;5.65;4.30;;;;;;;;;;4923799;29;20138;-61
2022/12/28 03:12:27;;;;;;;9.57;3.70;;;;;;;;;;4938660;28;20818;-60
2022/12/28 03:15:07;;;;;;;9.40;4.15;;;;;;;;;;4924659;29;20120;-65
2022/12/28 03:31:38;;;;;;;3.75;3.08;;;;;;;;;;4938481;28;20047;-63
2022/12/28 03:34:08;;;;;;;6.05;3.55;;;;;;;;;;4922750;29;20052;-64
2022/12/28 03:37:06;;;;;;;4.18;2.78;;;;;;;;;;4922958;29;20051;-62
2022/12/28 03:39:41;;;;;;;3.42;3.13;;;;;;;;;;4937091;29;20048;-64
2022/12/28 03:45:30;;;;;;;4.28;2.85;;;;;;;;;;4941833;28;20043;-62
2022/12/28 03:47:58;;;;;;;4.50;2.90;;;;;;;;;;4940448;28;20051;-64
2022/12/28 03:50:24;;;;;;;5.30;3.22;;;;;;;;;;4942051;28;20069;-62
2022/12/28 03:52:50;;;;;;;2.92;2.70;;;;;;;;;;4957400;28;20846;-64
2022/12/28 03:55:17;;;;;;;3.80;3.00;;;;;;;;;;4941585;28;20042;-64
2022/12/28 03:57:43;;;;;;;5.28;3.70;;;;;;;;;;4956904;28;20051;-62
2022/12/28 04:00:15;;;;;;;3.85;3.45;;;;;;;;;;4957460;28;20419;-61
2022/12/28 04:02:47;;;;;;;4.88;3.00;;;;;;;;;;4939538;28;20051;-62
2022/12/28 04:05:14;;;;;;;6.85;3.28;;;;;;;;;;4957650;28;20043;-64
2022/12/28 04:07:40;;;;;;;3.08;2.78;;;;;;;;;;4957425;28;20138;-63
2022/12/28 04:10:06;;;;;;;4.32;3.00;;;;;;;;;;4956200;28;20597;-62
2022/12/28 04:12:32;;;;;;;3.17;2.80;;;;;;;;;;4940180;28;20512;-65
2022/12/28 04:15:13;;;;;;;4.03;2.95;;;;;;;;;;4941255;28;20074;-64
2022/12/28 04:17:39;;;;;;;3.08;2.78;;;;;;;;;;4956877;28;20047;-64
2022/12/28 04:20:05;;;;;;;4.65;2.80;;;;;;;;;;4955711;28;20075;-64
2022/12/28 04:22:31;;;;;;;4.22;2.80;;;;;;;;;;4942610;28;20058;-64
2022/12/28 04:24:58;;;;;;;3.90;3.50;;;;;;;;;;4939798;28;20130;-65
2022/12/28 04:27:23;;;;;;;5.35;2.72;;;;;;;;;;4942382;28;20154;-64
2022/12/28 04:29:50;;;;;;;3.55;2.80;;;;;;;;;;4939572;28;20149;-63
2022/12/28 04:32:18;;;;;;;3.72;2.95;;;;;;;;;;4940360;28;20054;-61
2022/12/28 04:34:44;;;;;;;3.20;2.35;;;;;;;;;;4956071;28;20075;-65
2022/12/28 04:37:10;;;;;;;4.03;2.55;;;;;;;;;;4956403;28;20043;-63
2022/12/28 04:39:36;;;;;;;5.82;2.80;;;;;;;;;;4941518;28;20441;-63
2022/12/28 04:42:01;;;;;;;2.80;2.58;;;;;;;;;;4941421;28;20043;-64
2022/12/28 04:44:26;;;;;;;3.60;2.67;;;;;;;;;;4941917;28;20099;-62
2022/12/28 04:46:52;;;;;;;3.58;2.70;;;;;;;;;;4941383;28;20050;-64
2022/12/28 04:49:17;;;;;;;3.47;2.53;;;;;;;;;;4941509;28;20075;-64
2022/12/28 04:51:43;;;;;;;3.50;2.75;;;;;;;;;;4941073;28;20054;-63
2022/12/28 04:54:13;;;;;;;4.07;2.50;;;;;;;;;;4942147;28;20047;-63
2022/12/28 04:56:39;;;;;;;2.95;2.65;;;;;;;;;;4941094;28;20137;-64
2022/12/28 04:59:04;;;;;;;3.58;2.95;;;;;;;;;;4939862;28;20075;-65
2022/12/28 05:01:30;;;;;;;3.50;2.47;;;;;;;;;;4941656;28;20046;-61
2022/12/28 05:03:56;;;;;;;3.28;2.97;;;;;;;;;;4941976;28;20106;-63
2022/12/28 05:06:22;;;;;;;4.85;3.30;;;;;;;;;;4935829;28;20388;-64
2022/12/28 05:08:48;;;;;;;4.00;3.05;;;;;;;;;;4916337;28;20071;-63
2022/12/28 05:11:17;;;;;;;4.03;2.90;;;;;;;;;;4920073;28;20512;-65
2022/12/28 05:13:42;;;;;;;2.67;2.47;;;;;;;;;;4921271;28;20059;-63
2022/12/28 05:16:11;;;;;;;3.17;2.88;;;;;;;;;;4922552;29;20055;-62
2022/12/28 05:18:37;;;;;;;2.67;2.40;;;;;;;;;;4920765;28;20146;-64
2022/12/28 05:21:08;;;;;;;4.57;2.63;;;;;;;;;;4922794;28;20128;-63
2022/12/28 05:23:36;;;;;;;3.58;2.70;;;;;;;;;;4923225;28;20050;-64
2022/12/28 05:26:05;;;;;;;3.70;2.22;;;;;;;;;;4922493;28;20036;-60
2022/12/28 05:28:31;;;;;;;4.10;2.60;;;;;;;;;;4922142;28;20043;-64
2022/12/28 05:31:02;;;;;;;2.45;2.25;;;;;;;;;;4921792;28;20126;-64
2022/12/28 05:33:29;;;;;;;4.18;3.08;;;;;;;;;;4922881;29;20055;-65
2022/12/28 05:35:54;;;;;;;3.15;2.50;;;;;;;;;;4922330;28;20047;-64
2022/12/28 05:38:20;;;;;;;4.38;2.80;;;;;;;;;;4922499;28;20047;-62
2022/12/28 05:40:45;;;;;;;3.88;2.70;;;;;;;;;;4921912;28;20088;-65
2022/12/28 05:43:11;;;;;;;3.17;2.63;;;;;;;;;;4923104;28;20381;-63
2022/12/28 05:45:36;;;;;;;3.90;2.80;;;;;;;;;;4922909;28;20070;-64
2022/12/28 05:48:02;;;;;;;2.83;2.42;;;;;;;;;;4922538;28;20247;-64
2022/12/28 05:50:27;;;;;;;4.03;2.80;;;;;;;;;;4922903;29;20135;-62
2022/12/28 05:52:53;;;;;;;3.70;2.92;;;;;;;;;;4920552;29;20051;-65
2022/12/28 05:55:18;;;;;;;3.17;2.80;;;;;;;;;;4922839;28;20044;-65
2022/12/28 05:57:43;;;;;;;3.45;2.88;;;;;;;;;;4922198;28;20079;-64
2022/12/28 06:00:09;;;;;;;4.25;3.03;;;;;;;;;;4922052;28;20154;-66
2022/12/28 06:02:37;;;;;;;7.20;3.00;;;;;;;;;;4921634;28;20052;-65
2022/12/28 06:05:03;;;;;;;2.97;2.25;;;;;;;;;;4923143;29;20055;-66
2022/12/28 06:07:29;;;;;;;5.43;2.53;;;;;;;;;;4922698;28;20052;-65
2022/12/28 06:09:54;;;;;;;4.88;2.90;;;;;;;;;;4922077;28;20052;-66
2022/12/28 06:12:20;;;;;;;3.08;2.42;;;;;;;;;;4923001;28;20059;-68
2022/12/28 06:14:45;;;;;;;3.70;2.70;;;;;;;;;;4922337;29;20055;-67
2022/12/28 06:17:11;;;;;;;3.60;2.75;;;;;;;;;;4937619;29;20051;-67
2022/12/28 06:19:36;;;;;;;2.88;2.58;;;;;;;;;;4922286;28;20063;-67
2022/12/28 06:22:02;;;;;;;2.95;2.45;;;;;;;;;;4924911;28;20056;-66
2022/12/28 06:24:27;;;;;;;4.60;2.83;;;;;;;;;;4924437;28;20066;-67
2022/12/28 06:26:52;;;;;;;5.15;2.25;;;;;;;;;;4923456;29;20047;-69
2022/12/28 06:29:18;;;;;;;3.58;2.70;;;;;;;;;;4940569;29;20040;-67
2022/12/28 06:31:50;;;;;;;5.43;2.80;;;;;;;;;;4925004;28;20051;-67
2022/12/28 06:34:16;;;;;;;2.80;2.50;;;;;;;;;;4926182;29;20047;-68
2022/12/28 06:36:43;;;;;;;6.10;2.53;;;;;;;;;;4924422;28;20058;-70
2022/12/28 06:39:11;;;;;;;3.47;2.42;;;;;;;;;;4922993;28;20206;-67
2022/12/28 06:41:37;;;;;;;2.33;2.13;;;;;;;;;;4925859;29;20083;-69
2022/12/28 06:44:07;;;;;;;2.83;2.50;;;;;;;;;;4925478;28;20526;-68
2022/12/28 06:46:33;;;;;;;3.08;2.30;;;;;;;;;;4925602;29;20040;-69
2022/12/28 06:48:58;;;;;;;3.92;2.50;;;;;;;;;;4939926;29;20051;-68
2022/12/28 06:51:26;;;;;;;3.40;2.63;;;;;;;;;;4940518;28;20047;-68
2022/12/28 06:53:53;;;;;;;2.95;2.65;;;;;;;;;;4925491;29;20051;-66
2022/12/28 06:56:24;;;;;;;3.45;2.80;;;;;;;;;;4941074;28;20472;-69
2022/12/28 06:58:50;;;;;;;3.55;2.50;;;;;;;;;;4923068;28;20078;-70
2022/12/28 07:01:25;;;;;;;3.35;2.15;;;;;;;;;;4925273;29;20086;-67
2022/12/28 07:03:52;;;;;;;3.83;2.70;;;;;;;;;;4925107;29;20044;-68
2022/12/28 07:06:19;;;;;;;3.60;2.85;;;;;;;;;;4912491;28;20048;-68
2022/12/28 07:08:45;;;;;;;2.67;2.20;;;;;;;;;;4922100;29;20142;-68
2022/12/28 07:11:14;;;;;;;5.20;2.50;;;;;;;;;;4924487;29;20054;-69
2022/12/28 07:13:40;;;;;;;2.40;2.20;;;;;;;;;;4923871;29;20481;-68
2022/12/28 07:16:09;;;;;;;2.92;2.35;;;;;;;;;;4923346;29;20063;-68
2022/12/28 07:18:35;;;;;;;2.63;2.13;;;;;;;;;;4924778;28;20048;-68
2022/12/28 07:21:04;;;;;;;3.30;2.30;;;;;;;;;;4939252;29;20385;-68
2022/12/28 07:23:30;;;;;;;3.00;2.38;;;;;;;;;;4924864;29;20048;-69
2022/12/28 07:26:06;;;;;;;2.90;2.60;;;;;;;;;;4923040;28;20095;-67
2022/12/28 07:28:32;;;;;;;3.00;2.50;;;;;;;;;;4924060;28;20202;-67
2022/12/28 07:30:58;;;;;;;2.50;2.30;;;;;;;;;;4923369;28;20055;-69
2022/12/28 07:33:23;;;;;;;2.67;2.35;;;;;;;;;;4924497;28;20050;-68
2022/12/28 07:35:49;;;;;;;2.60;2.40;;;;;;;;;;4936682;28;20040;-68
2022/12/28 07:38:14;;;;;;;2.85;2.50;;;;;;;;;;4923530;28;20044;-68
2022/12/28 07:40:39;;;;;;;2.90;2.55;;;;;;;;;;4924404;29;20130;-68
2022/12/28 07:43:05;;;;;;;2.83;2.28;;;;;;;;;;4921913;28;20044;-68
2022/12/28 07:45:31;;;;;;;4.20;2.58;;;;;;;;;;4923912;29;20048;-68
2022/12/28 07:47:56;;;;;;;5.40;2.67;;;;;;;;;;4922957;28;20044;-68
2022/12/28 07:50:22;;;;;;;3.30;3.00;;;;;;;;;;4924056;29;20154;-67
2022/12/28 07:52:47;;;;;;;4.20;2.78;;;;;;;;;;4938078;29;20059;-67
2022/12/28 07:55:13;;;;;;;2.53;2.28;;;;;;;;;;4923999;28;20098;-68
2022/12/28 07:57:38;;;;;;;2.63;2.40;;;;;;;;;;4923597;29;20058;-68
2022/12/28 08:00:06;;;;;;;4.65;2.70;;;;;;;;;;4923435;28;20054;-69
2022/12/28 08:02:37;;;;;;;4.22;3.08;;;;;;;;;;4923559;29;20083;-68
2022/12/28 08:05:03;;;;;;;5.43;3.22;;;;;;;;;;4937618;29;20083;-68
2022/12/28 08:07:28;;;;;;;3.95;3.30;;;;;;;;;;4923036;29;20048;-67
2022/12/28 08:09:54;;;;;;;5.63;3.63;;;;;;;;;;4923019;28;20118;-69
2022/12/28 08:12:20;;;;;;;4.43;3.65;;;;;;;;;;4924078;29;20056;-68
2022/12/28 08:14:45;;;;;;;7.32;4.25;;;;;;;;;;4923144;28;20515;-67
2022/12/28 08:17:10;;;;;;;8.13;4.75;;;;;;;;;;4922856;28;20043;-68
2022/12/28 08:19:36;;;;;;;4.80;3.90;;;;;;;;;;4922560;28;20221;-68
2022/12/28 08:22:01;;;;;;;4.97;3.78;;;;;;;;;;4922254;28;20054;-69
2022/12/28 08:24:26;;;;;;;4.05;3.50;;;;;;;;;;4923493;29;20576;-69
2022/12/28 08:26:52;;;;;;;5.93;3.95;;;;;;;;;;4922160;28;20048;-68
2022/12/28 08:29:20;;;;;;;4.63;3.50;;;;;;;;;;4922317;28;20106;-68
2022/12/28 08:31:45;;;;;;;4.30;3.00;;;;;;;;;;4922652;28;20079;-68
2022/12/28 08:34:14;;;;;;;6.63;3.38;;;;;;;;;;4920852;29;20522;-72
2022/12/28 08:36:40;;;;;;;5.50;3.40;;;;;;;;;;4921425;29;20052;-69
2022/12/28 08:39:06;;;;;;;4.13;3.45;;;;;;;;;;4922301;29;20051;-68
2022/12/28 08:41:31;;;;;;;5.00;3.80;;;;;;;;;;4922398;29;20231;-68
2022/12/28 08:43:57;;;;;;;5.90;3.95;;;;;;;;;;4921866;28;20044;-69
2022/12/28 08:46:25;;;;;;;4.90;3.47;;;;;;;;;;4922536;29;20126;-68
2022/12/28 08:48:52;;;;;;;4.43;3.80;;;;;;;;;;4920522;29;20063;-71
2022/12/28 08:51:20;;;;;;;8.52;4.57;;;;;;;;;;4923114;28;20052;-69
2022/12/28 08:53:46;;;;;;;4.93;4.03;;;;;;;;;;4922605;29;20051;-69
2022/12/28 08:56:15;;;;;;;5.60;4.20;;;;;;;;;;4922463;28;20058;-68
2022/12/28 08:58:42;;;;;;;8.00;5.03;;;;;;;;;;4921222;28;20421;-69
2022/12/28 09:01:10;;;;;;;9.43;5.50;;;;;;;;;;4920922;29;20552;-68
2022/12/28 09:03:41;;;;;;;7.18;5.47;;;;;;;;;;4922076;28;20039;-69
2022/12/28 09:06:13;;;;;;;12.52;6.10;;;;;;;;;;4920483;28;20065;-68
2022/12/28 09:08:38;;;;;;;7.43;5.03;;;;;;;;;;4917110;29;20056;-68
2022/12/28 09:11:07;;;;;;;6.78;4.97;;;;;;;;;;4906539;28;20308;-69
2022/12/28 09:13:33;;;;;;;6.18;4.90;;;;;;;;;;4917061;29;20240;-69
2022/12/28 09:16:01;;;;;;;7.50;5.57;;;;;;;;;;4919770;28;20058;-71
2022/12/28 09:18:27;;;;;;;8.02;4.85;;;;;;;;;;4918721;28;20072;-70
2022/12/28 09:20:53;;;;;;;5.28;3.75;;;;;;;;;;4921233;28;20051;-69
2022/12/28 09:23:18;;;;;;;7.80;5.15;;;;;;;;;;4919975;28;20079;-69
2022/12/28 09:25:44;;;;;;;9.52;5.40;;;;;;;;;;4918882;28;20750;-67
2022/12/28 09:28:09;;;;;;;7.53;5.50;;;;;;;;;;4921579;28;20058;-68
2022/12/28 09:30:35;;;;;;;9.38;5.53;;;;;;;;;;4935901;29;20130;-69
2022/12/28 09:35:44;;;;;;;8.82;4.95;;;;;;;;;;4919358;28;20973;-68
2022/12/28 09:38:10;;;;;;;6.13;5.00;;;;;;;;;;4921486;28;20105;-68
2022/12/28 09:40:36;;;;;;;7.68;5.28;;;;;;;;;;4919834;28;20052;-70
2022/12/28 09:43:03;;;;;;;7.05;4.70;;;;;;;;;;4919196;28;20055;-69
2022/12/28 09:45:30;;;;;;;7.35;4.28;;;;;;;;;;4934525;29;20500;-69
2022/12/28 09:48:03;;;;;;;5.53;3.83;;;;;;;;;;4919583;28;20048;-69
2022/12/28 09:50:34;;;;;;;4.70;3.35;;;;;;;;;;4921176;29;20083;-69
2022/12/28 09:53:20;;;;;;;8.13;3.53;;;;;;;;;;4920944;28;20051;-68
2022/12/28 09:56:10;;;;;;;5.93;3.83;;;;;;;;;;4920903;29;21008;-68
2022/12/28 09:58:39;;;;;;;6.47;3.45;;;;;;;;;;4924573;28;20063;-67
2022/12/28 10:01:11;;;;;;;4.85;3.80;;;;;;;;;;4925621;29;20055;-67
2022/12/28 10:03:39;;;;;;;8.63;3.72;;;;;;;;;;4922180;28;20127;-71
2022/12/28 10:06:13;;;;;;;3.70;2.78;;;;;;;;;;4923705;29;20075;-68
2022/12/28 10:08:44;;;;;;;6.93;3.13;;;;;;;;;;4924933;28;20048;-68
2022/12/28 10:11:17;;;;;;;3.75;3.10;;;;;;;;;;4923806;28;20491;-71
2022/12/28 10:13:43;;;;;;;3.10;2.80;;;;;;;;;;4924408;29;20245;-67
2022/12/28 10:16:16;;;;;;;4.35;2.92;;;;;;;;;;4922883;28;20046;-69
2022/12/28 10:18:42;;;;;;;3.08;2.83;;;;;;;;;;4926204;28;20111;-72
2022/12/28 10:21:08;;;;;;;3.42;2.78;;;;;;;;;;4926672;28;20044;-68
2022/12/28 10:23:35;;;;;;;6.22;2.75;;;;;;;;;;4925513;29;20110;-67
2022/12/28 10:26:03;;;;;;;3.38;2.83;;;;;;;;;;4938450;28;20047;-67
2022/12/28 10:28:36;;;;;;;2.50;2.30;;;;;;;;;;4952399;28;20057;-68
2022/12/28 10:31:09;;;;;;;3.33;2.60;;;;;;;;;;4952133;28;20090;-67
2022/12/28 10:33:39;;;;;;;2.97;2.67;;;;;;;;;;4945908;28;20791;-66
2022/12/28 10:36:09;;;;;;;3.88;2.88;;;;;;;;;;4944304;28;20423;-67
2022/12/28 10:38:35;;;;;;;3.70;2.72;;;;;;;;;;4951009;28;20112;-67
2022/12/28 10:41:08;;;;;;;5.03;3.55;;;;;;;;;;4950500;28;20070;-67
2022/12/28 10:43:36;;;;;;;2.80;2.58;;;;;;;;;;4944101;28;20055;-68
2022/12/28 10:46:04;;;;;;;3.38;2.90;;;;;;;;;;4946013;28;20058;-67
2022/12/28 10:48:35;;;;;;;5.63;3.08;;;;;;;;;;4951324;28;21021;-67
2022/12/28 10:51:22;;;;;;;4.32;2.95;;;;;;;;;;4933029;29;20051;-69
2022/12/28 10:53:55;;;;;;;3.13;2.80;;;;;;;;;;4925148;28;20051;-69
2022/12/28 10:56:32;;;;;;;2.90;2.45;;;;;;;;;;4924971;29;20058;-67
2022/12/28 10:59:19;;;;;;;3.60;2.80;;;;;;;;;;4925658;28;20066;-67
2022/12/28 11:01:44;;;;;;;3.53;2.80;;;;;;;;;;4925637;28;20055;-68
2022/12/28 11:04:18;;;;;;;5.00;2.85;;;;;;;;;;4927357;28;20060;-67
2022/12/28 11:06:57;;;;;;;3.53;3.22;;;;;;;;;;4925392;29;20175;-67
2022/12/28 11:09:34;;;;;;;4.43;3.28;;;;;;;;;;4927967;29;20059;-67
2022/12/28 11:12:40;;;;;;;4.00;3.15;;;;;;;;;;4926513;28;20079;-68
2022/12/28 11:15:07;;;;;;;3.42;3.10;;;;;;;;;;4898010;29;20048;-68
2022/12/28 11:17:36;;;;;;;3.35;2.88;;;;;;;;;;4939650;28;20053;-70
2022/12/28 11:20:31;;;;;;;4.93;3.08;;;;;;;;;;4944691;28;20081;-68
2022/12/28 11:22:57;;;;;;;3.05;2.70;;;;;;;;;;4943770;28;20058;-69
2022/12/28 11:25:33;;;;;;;3.05;2.75;;;;;;;;;;4950122;28;20051;-67
2022/12/28 11:28:00;;;;;;;3.33;2.92;;;;;;;;;;4947692;28;20039;-67
2022/12/28 11:30:26;;;;;;;4.05;3.30;;;;;;;;;;4948947;28;20236;-67
2022/12/28 11:32:57;;;;;;;4.82;2.80;;;;;;;;;;4961481;28;20050;-69
2022/12/28 11:35:27;;;;;;;3.57;2.73;;;;;;;;;;4944868;28;20062;-69
2022/12/28 11:37:55;;;;;;;3.30;2.40;;;;;;;;;;4944200;28;20306;-68
2022/12/28 11:40:42;;;;;;;3.00;2.63;;;;;;;;;;4946299;28;20132;-68
2022/12/28 11:43:29;;;;;;;2.97;2.67;;;;;;;;;;4957219;28;20055;-70
2022/12/28 11:46:00;;;;;;;1.92;1.60;;;;;;;;;;4942139;28;20062;-69
2022/12/28 11:48:41;;;;;;;2.40;2.20;;;;;;;;;;4945277;28;20055;-68
2022/12/28 11:51:21;;;;;;;2.60;2.20;;;;;;;;;;4946599;28;20054;-68
2022/12/28 11:53:46;;;;;;;4.28;2.22;;;;;;;;;;4948042;28;20055;-68
2022/12/28 11:56:14;;;;;;;2.88;2.28;;;;;;;;;;4948512;28;20186;-68
2022/12/28 11:58:39;;;;;;;2.15;1.50;;;;;;;;;;4948582;28;20059;-68
2022/12/28 12:01:08;;;;;;;2.72;2.40;;;;;;;;;;4949171;28;20091;-70
2022/12/28 12:03:55;;;;;;;3.83;2.40;;;;;;;;;;4962403;28;20412;-69
2022/12/28 12:06:41;;;;;;;2.45;2.15;;;;;;;;;;4959491;28;20053;-68
2022/12/28 12:09:24;;;;;;;5.90;2.78;;;;;;;;;;4948194;28;20601;-68
2022/12/28 12:11:53;;;;;;;3.50;2.75;;;;;;;;;;4949441;28;20055;-69
2022/12/28 12:14:30;;;;;;;2.75;2.08;;;;;;;;;;4948134;28;20523;-70
2022/12/28 12:17:03;;;;;;;4.97;2.33;;;;;;;;;;4958925;28;20492;-68
2022/12/28 12:19:32;;;;;;;4.72;2.50;;;;;;;;;;4960407;28;20058;-68
2022/12/28 12:22:01;;;;;;;3.15;2.75;;;;;;;;;;4947425;28;20055;-69
2022/12/28 12:24:42;;;;;;;2.95;2.65;;;;;;;;;;4944350;28;20043;-70
2022/12/28 12:27:15;;;;;;;3.20;2.38;;;;;;;;;;4943563;28;20082;-71
2022/12/28 12:29:44;;;;;;;2.20;1.92;;;;;;;;;;4943195;28;20066;-71
2022/12/28 12:32:20;;;;;;;3.03;2.05;;;;;;;;;;4943747;28;20047;-71
2022/12/28 12:34:53;;;;;;;2.90;2.13;;;;;;;;;;4935508;28;20057;-68
2022/12/28 12:37:43;;;;;;;3.80;2.55;;;;;;;;;;4946643;28;20050;-69
2022/12/28 12:40:08;;;;;;;2.20;1.88;;;;;;;;;;4947887;28;20503;-70
2022/12/28 12:43:12;;;;;;;2.30;1.75;;;;;;;;;;4960471;28;20055;-69
2022/12/28 12:46:15;;;;;;;2.17;1.95;;;;;;;;;;4943343;28;20059;-67
2022/12/28 12:48:59;;;;;;;2.05;1.85;;;;;;;;;;4933470;28;20131;-70
2022/12/28 12:51:24;;;;;;;2.80;1.80;;;;;;;;;;4941016;28;20059;-69
2022/12/28 12:53:58;;;;;;;1.60;1.50;;;;;;;;;;4948090;28;20066;-68
2022/12/28 12:56:37;;;;;;;1.90;1.58;;;;;;;;;;4946966;28;20058;-68
2022/12/28 12:59:34;;;;;;;2.08;1.88;;;;;;;;;;4945168;28;20047;-70
2022/12/28 13:02:24;;;;;;;4.70;1.55;;;;;;;;;;4942300;28;20039;-69
2022/12/28 13:04:50;;;;;;;1.88;1.60;;;;;;;;;;4945529;28;20158;-69
2022/12/28 13:07:22;;;;;;;3.05;1.50;;;;;;;;;;4947930;28;20123;-68
2022/12/28 13:09:49;;;;;;;2.10;1.70;;;;;;;;;;4945943;28;20764;-69
2022/12/28 13:12:16;;;;;;;3.60;1.75;;;;;;;;;;4943356;28;20563;-69
2022/12/28 13:14:56;;;;;;;2.58;1.75;;;;;;;;;;4944232;28;20054;-68
2022/12/28 13:17:22;;;;;;;1.58;1.48;;;;;;;;;;4947351;28;20059;-67
2022/12/28 13:19:47;;;;;;;2.17;1.35;;;;;;;;;;4947010;28;20160;-68
2022/12/28 13:22:31;;;;;;;2.10;1.60;;;;;;;;;;4946007;28;20385;-68
2022/12/28 13:24:57;;;;;;;4.88;1.50;;;;;;;;;;4960104;28;20051;-69
2022/12/28 13:27:33;;;;;;;2.33;1.70;;;;;;;;;;4946388;28;20601;-67
2022/12/28 13:29:59;;;;;;;1.65;1.48;;;;;;;;;;4945692;28;20062;-68
2022/12/28 13:32:30;;;;;;;2.30;1.67;;;;;;;;;;4948836;28;20175;-67
2022/12/28 13:34:56;;;;;;;2.55;2.00;;;;;;;;;;4947825;28;20565;-67
2022/12/28 13:37:22;;;;;;;2.05;1.58;;;;;;;;;;4948982;28;20094;-68
2022/12/28 13:39:48;;;;;;;2.10;1.60;;;;;;;;;;4945705;28;20051;-68
2022/12/28 13:42:17;;;;;;;2.67;1.63;;;;;;;;;;4947364;28;20047;-68
2022/12/28 13:44:43;;;;;;;1.92;1.65;;;;;;;;;;4947097;28;20481;-68
2022/12/28 13:47:33;;;;;;;2.25;1.83;;;;;;;;;;4947281;28;20047;-69
2022/12/28 13:50:04;;;;;;;2.35;1.77;;;;;;;;;;4946854;28;20051;-67
2022/12/28 13:52:37;;;;;;;1.58;1.48;;;;;;;;;;4948815;28;20051;-67
2022/12/28 13:55:06;;;;;;;4.07;1.33;;;;;;;;;;4946277;28;20047;-67
2022/12/28 13:57:34;;;;;;;1.60;1.50;;;;;;;;;;4946953;28;20154;-67
2022/12/28 14:00:00;;;;;;;1.80;1.70;;;;;;;;;;4946147;28;20512;-67
2022/12/28 14:02:27;;;;;;;2.20;1.90;;;;;;;;;;4945635;28;20493;-67
2022/12/28 14:04:53;;;;;;;1.70;1.60;;;;;;;;;;4945846;28;20917;-68
2022/12/28 14:07:22;;;;;;;1.67;1.58;;;;;;;;;;4959270;28;20043;-68
2022/12/28 14:09:48;;;;;;;2.50;1.77;;;;;;;;;;4944534;28;20488;-67
2022/12/28 14:12:14;;;;;;;2.72;1.80;;;;;;;;;;4944627;28;20051;-67
2022/12/28 14:14:41;;;;;;;2.38;1.80;;;;;;;;;;4945399;28;20106;-67
2022/12/28 14:17:07;;;;;;;2.45;1.50;;;;;;;;;;4945608;28;20111;-70
2022/12/28 14:19:33;;;;;;;1.95;1.63;;;;;;;;;;4944379;28;20044;-68
2022/12/28 14:21:59;;;;;;;1.98;1.77;;;;;;;;;;4948427;28;20098;-68
2022/12/28 14:24:25;;;;;;;2.33;1.88;;;;;;;;;;4944916;28;20055;-69
2022/12/28 14:26:56;;;;;;;2.08;1.80;;;;;;;;;;4944420;28;20051;-67
2022/12/28 14:29:33;;;;;;;2.17;1.97;;;;;;;;;;4959942;28;20069;-68
2022/12/28 14:32:05;;;;;;;1.80;1.67;;;;;;;;;;4944077;28;20050;-67
2022/12/28 14:34:34;;;;;;;2.05;1.73;;;;;;;;;;4943411;28;20051;-71
2022/12/28 14:37:00;;;;;;;1.98;1.77;;;;;;;;;;4942082;28;20595;-71
2022/12/28 14:39:30;;;;;;;4.05;1.90;;;;;;;;;;4942127;28;20248;-70
2022/12/28 14:41:57;;;;;;;3.15;2.03;;;;;;;;;;4944876;28;21763;-69
2022/12/28 14:44:32;;;;;;;2.92;2.10;;;;;;;;;;4950108;28;20736;-69
2022/12/28 14:47:00;;;;;;;2.70;2.13;;;;;;;;;;4946832;28;20400;-72
2022/12/28 14:49:31;;;;;;;5.20;2.38;;;;;;;;;;4946626;28;20109;-70
2022/12/28 14:52:06;;;;;;;2.92;2.45;;;;;;;;;;4944916;28;20524;-69
2022/12/28 14:54:42;;;;;;;5.53;2.58;;;;;;;;;;4952991;28;20507;-68
2022/12/28 14:57:21;;;;;;;4.68;3.10;;;;;;;;;;4948407;28;20043;-67
2022/12/28 14:59:54;;;;;;;2.97;2.45;;;;;;;;;;4948368;28;20397;-67
2022/12/28 15:02:32;;;;;;;7.82;2.90;;;;;;;;;;4944917;28;20053;-69
2022/12/28 15:04:58;;;;;;;4.68;2.47;;;;;;;;;;4945747;28;20043;-69
2022/12/28 15:07:24;;;;;;;4.03;3.13;;;;;;;;;;4948487;28;20047;-70
2022/12/28 15:09:49;;;;;;;8.55;3.28;;;;;;;;;;4946880;28;20110;-70
2022/12/28 15:12:20;;;;;;;5.72;3.00;;;;;;;;;;4948226;28;20062;-69
2022/12/28 15:14:47;;;;;;;5.20;3.15;;;;;;;;;;4947252;28;20047;-66
2022/12/28 15:17:13;;;;;;;5.32;3.40;;;;;;;;;;4946668;28;20059;-67
2022/12/28 15:19:41;;;;;;;5.85;3.22;;;;;;;;;;4945840;28;20039;-70
2022/12/28 15:22:07;;;;;;;3.20;2.90;;;;;;;;;;4947362;28;20051;-70
2022/12/28 15:24:33;;;;;;;3.95;2.50;;;;;;;;;;4945692;28;20464;-70
2022/12/28 15:26:58;;;;;;;3.45;2.55;;;;;;;;;;4946835;28;20043;-69